Weather observations for the past three days for
Vandenberg Space Force Base
| Date | Time (pdt) | Wind (kph) | Vis. (km) | Weather | Sky Cond. | Temperature (ºC) | Relative Humidity | Wind Chill (°C) | Heat Index (°C) | Pressure | Precipitation (cm) | ||||||
|---|---|---|---|---|---|---|---|---|---|---|---|---|---|---|---|---|---|
| Air | Dwpt | 6 hour | altimeter (cm) | sea level (mb) | 1 hr | 3 hr | 6 hr | ||||||||||
| Max. | Min. | ||||||||||||||||
| 02 | 11:55 | NW 13 | 16.09 | A Few Clouds | FEW340 | 14.4 | 10.8 | 79% | 76.2 | 1016.2 | |||||||
| 02 | 10:55 | NW 13 | 11.27 | Overcast | OVC013 | 13.9 | 10.9 | 14 | 11.9 | 82% | 76.2 | 1016.2 | |||||
| 02 | 09:55 | NW 7 | 11.27 | Overcast | OVC012 | 13.5 | 10.7 | 83% | 76.17 | 1015.8 | |||||||
| 02 | 08:55 | NW 9 | 16.09 | Overcast | OVC012 | 13.8 | 11 | 83% | 76.15 | 1015.5 | |||||||
| 02 | 07:55 | Calm | 14.48 | Overcast | OVC011 | 13 | 10.7 | 86% | 76.15 | 1015.5 | |||||||
| 02 | 06:55 | NW 7 | 14.48 | Overcast | OVC010 | 12.4 | 11 | 91% | 76.12 | 1015.2 | |||||||
| 02 | 05:55 | N 7 | 16.09 | Overcast | OVC007 | 12.1 | 10.8 | 92% | 76.07 | 1014.5 | |||||||
| 02 | 04:55 | N 7 | 16.09 | Fair | CLR | 12.3 | 10.7 | 13.3 | 11.9 | 90% | 76.07 | 1014.5 | |||||
| 02 | 03:55 | N 11 | 16.09 | Overcast | OVC007 | 12.2 | 10.8 | 91% | 76.07 | 1014.5 | |||||||
| 02 | 02:55 | NW 13 | 14.48 | Overcast | OVC006 | 12.3 | 11.2 | 93% | 76.05 | 1014.2 | |||||||
| 02 | 01:55 | N 11 | 14.48 | Overcast | OVC006 | 13 | 11.7 | 92% | 76.07 | 1014.5 | |||||||
| 02 | 00:55 | N 7 | 16.09 | Overcast | OVC007 | 12.9 | 11.5 | 91% | 76.1 | 1014.8 | |||||||
| 01 | 23:55 | N 7 | 12.87 | Fair | CLR | 13 | 11.6 | 91% | 76.12 | 1015.1 | |||||||
| 01 | 22:55 | N 13 | 14.48 | Fair | CLR | 13.1 | 11.5 | 14.3 | 11.9 | 90% | 76.15 | 1015.5 | |||||
| 01 | 21:55 | N 13 | 16.09 | Fair | CLR | 13 | 11.1 | 88% | 76.15 | 1015.5 | |||||||
| 01 | 20:55 | N 11 | 16.09 | Fair | CLR | 12.9 | 11 | 88% | 76.12 | 1015.2 | |||||||
| 01 | 19:55 | NW 13 | 16.09 | Overcast | OVC008 | 12.9 | 11 | 88% | 76.1 | 1014.9 | |||||||
| 01 | 18:55 | N 15 | 14.48 | Fair | CLR | 12.7 | 10.6 | 87% | 76.07 | 1014.5 | |||||||
| 01 | 17:55 | N 17 | 11.27 | Fair | CLR | 12.2 | 10.1 | 87% | 76.07 | 1014.5 | |||||||
| 01 | 16:55 | NW 19 | 9.66 | Fog/Mist | OVC009 | 14.5 | 11.5 | 19.5 | 13.2 | 82% | 76.07 | 1014.5 | |||||
| 01 | 15:55 | NW 15 | 9.66 | Fog/Mist | OVC010 | 15.1 | 11.5 | 79% | 76.1 | 1014.8 | |||||||
| 01 | 14:55 | NW 17 | 9.66 | Fog/Mist | OVC009 | 14.6 | 11.4 | 81% | 76.15 | 1015.5 | |||||||
| 01 | 13:55 | NW 19 | 12.87 | Mostly Cloudy | FEW009 BKN013 | 15.1 | 10.7 | 75% | 76.17 | 1015.8 | |||||||
| 01 | 12:55 | N 15 | 12.87 | Mostly Cloudy | FEW009 BKN014 | 19.5 | 14.7 | 74% | 76.17 | 1015.8 | |||||||
| 01 | 11:55 | NW 7 | 9.66 | Fog/Mist | OVC009 | 14.1 | 10.5 | 79% | 76.2 | 1016.2 | |||||||
| 01 | 10:55 | Calm | 11.27 | Overcast | OVC008 | 13.2 | 10.9 | 13.2 | 11.2 | 86% | 76.23 | 1016.6 | |||||
| 01 | 09:55 | Calm | 8.05 | Fog/Mist | OVC006 | 12.7 | 11.1 | 90% | 76.23 | 1016.5 | |||||||
| 01 | 08:55 | Calm | 4.83 | Fog/Mist | OVC004 | 12 | 11.1 | 94% | 76.2 | 1016.2 | |||||||
| 01 | 07:55 | Calm | 3.22 | Fog/Mist | OVC003 | 11.5 | 11 | 97% | 76.17 | 1015.9 | |||||||
| 01 | 06:55 | N 11 | 2.01 | Fog/Mist | OVC002 | 11.4 | 10.9 | 97% | 76.15 | 1015.5 | |||||||
| 01 | 05:55 | W 9 | 12.87 | Overcast | OVC003 | 11.5 | 10.9 | 96% | 76.1 | 1014.9 | |||||||
| 01 | 04:55 | NW 6 | 14.48 | Overcast | OVC004 | 11.7 | 10.9 | 12.6 | 10.4 | 95% | 76.07 | 1014.5 | |||||
| 01 | 03:55 | N 13 | 14.48 | Overcast | OVC006 | 12.2 | 11.3 | 94% | 76.07 | 1014.5 | |||||||
| 01 | 02:55 | NW 13 | 16.09 | Overcast | OVC007 | 12.2 | 11.1 | 93% | 76.07 | 1014.5 | |||||||
| 01 | 01:55 | N 13 | 16.09 | Overcast | OVC007 | 12.3 | 11 | 92% | 76.1 | 1014.8 | |||||||
| 01 | 00:55 | N 11 | 16.09 | Overcast | OVC009 | 11.8 | 10.7 | 93% | 76.12 | 1015.2 | |||||||
| 30 | 23:55 | N 17 | 14.48 | Fair | CLR | 10.8 | 9.9 | 94% | 76.12 | 1015.2 | |||||||
| 30 | 22:55 | N 17 | 14.48 | Overcast | OVC008 | 11.8 | 10.7 | 16.8 | 10.8 | 93% | 76.12 | 1015.2 | |||||
| 30 | 21:55 | N 19 | 16.09 | Overcast | OVC009 | 12.8 | 11 | 89% | 76.1 | 1014.8 | |||||||
| 30 | 20:55 | N 24 | 16.09 | Overcast | OVC009 | 12.8 | 10.9 | 88% | 76.1 | 1014.8 | |||||||
| 30 | 19:55 | NW 19 | 11.27 | Overcast | OVC009 | 11.3 | 9.4 | 88% | 76.05 | 1014.2 | |||||||
| 30 | 18:55 | NW 22 G 31 | 8.05 | Fog/Mist | OVC008 | 16.3 | 14.1 | 87% | 76.02 | 1013.8 | |||||||
| 30 | 17:55 | NW 24 | 12.87 | Overcast | OVC009 | 12.5 | 9.7 | 83% | 76 | 1013.5 | |||||||
| 30 | 14:55 | N 31 G 41 | 9.66 | Fog/Mist | BKN011 | 15.7 | 11.7 | 77% | 76.05 | 1014.1 | |||||||
| 30 | 13:55 | NW 33 G 41 | 9.66 | Fog/Mist and Breezy | BKN011 BKN040 | 16.4 | 11.3 | 72% | 76.05 | 1014.1 | |||||||
| 30 | 12:55 | NW 30 G 43 | 9.66 | Fog/Mist | BKN010 | 14.5 | 10.1 | 75% | 76.07 | 1014.5 | |||||||
| 30 | 11:55 | N 35 G 43 | 9.66 | Fog/Mist and Breezy | SCT009 | 14.8 | 10.2 | 74% | 76.07 | 1014.5 | |||||||
| 30 | 10:55 | NW 30 | 9.66 | Fog/Mist | BKN007 | 15 | 11.8 | 15.1 | 11.5 | 81% | 76.12 | 1015.2 | |||||
| 30 | 09:55 | NW 22 | 6.44 | Fog/Mist | OVC002 | 13 | 11.6 | 91% | 76.12 | 1015.1 | |||||||
| 30 | 08:55 | NW 11 | 8.05 | Fog/Mist | OVC004 | 13 | 11.7 | 92% | 76.12 | 1015.2 | |||||||
| 30 | 07:55 | N 19 | 6.44 | Fog/Mist | OVC003 | 12.4 | 11.5 | 94% | 76.12 | 1015.1 | |||||||
| 30 | 06:55 | N 13 | 4.83 | Fog/Mist | OVC003 | 11.6 | 11 | 96% | 76.1 | 1014.8 | |||||||
| 30 | 05:55 | NW 6 | 12.87 | Overcast | OVC004 | 11.6 | 10.8 | 95% | 76.1 | 1014.8 | |||||||
| 30 | 04:55 | NE 7 | 16.09 | Overcast | OVC004 | 11.7 | 10.8 | 14 | 9.5 | 94% | 76.1 | 1014.8 | |||||
| 30 | 03:55 | NW 7 | 12.87 | Overcast | OVC004 | 12.4 | 11.5 | 94% | 76.1 | 1014.8 | |||||||
| 30 | 02:55 | NW 15 | 16.09 | Overcast | OVC007 | 12.5 | 11.2 | 92% | 76.15 | 1015.4 | |||||||
| 30 | 01:55 | NW 11 | 16.09 | Overcast | OVC008 | 12.3 | 11 | 92% | 76.17 | 1015.8 | |||||||
| 30 | 00:55 | NW 9 | 14.48 | Overcast | OVC007 | 11.8 | 11 | 95% | 76.23 | 1016.4 | |||||||
| 29 | 23:55 | N 7 | 14.48 | Overcast | OVC008 | 9.9 | 9.1 | 95% | 9 | 76.25 | 1016.8 | ||||||
| 29 | 22:55 | N 7 | 16.09 | Overcast | OVC008 | 11.4 | 10.6 | 18.7 | 10.5 | 95% | 76.25 | 1016.8 | |||||
| 29 | 21:55 | NW 13 | 14.48 | Overcast | OVC007 | 15.5 | 14.5 | 94% | 76.28 | 1017.1 | |||||||
| 29 | 20:55 | NW 9 | 14.48 | Overcast | OVC008 | 13.9 | 12.8 | 93% | 76.25 | 1016.9 | |||||||
| 29 | 19:55 | NW 13 | 14.48 | Overcast | OVC008 | 14.9 | 13.3 | 90% | 76.23 | 1016.5 | |||||||
| 29 | 18:55 | NW 19 | 9.66 | Fog/Mist | BKN009 | 15.6 | 13.3 | 86% | 76.2 | 1016.2 | |||||||
| 29 | 17:55 | NW 20 G 33 | 9.66 | Fog/Mist | BKN009 | 16.9 | 13.8 | 82% | 76.2 | 1016.2 | |||||||
| 29 | 16:55 | NW 26 | 9.66 | Fog/Mist | BKN012 | 16.3 | 12.3 | 22.6 | 15.7 | 77% | 76.2 | 1016.2 | |||||
| 29 | 15:55 | NW 24 | 16.09 | A Few Clouds | FEW009 FEW025 | 17.3 | 12.2 | 72% | 76.23 | 1016.5 | |||||||
| 29 | 14:55 | NW 22 | 16.09 | A Few Clouds | FEW009 FEW025 | 20 | 14.3 | 70% | 76.25 | 1016.8 | |||||||
| 29 | 13:55 | NW 24 | 16.09 | A Few Clouds | FEW010 FEW025 FEW200 | 20 | 13.9 | 68% | 76.25 | 1016.8 | |||||||
| 29 | 12:55 | NW 19 | 16.09 | A Few Clouds | FEW010 FEW025 FEW200 | 22.5 | 15.3 | 64% | 76.3 | 1017.5 | |||||||
| Date | Time (pdt) | Wind (kph) | Vis. (km) | Weather | Sky Cond. | Air | Dwpt | Max. | Min. | Relative Humidity | Wind Chill (°C) | Heat Index (°C) | altimeter (cm) | sea level (mb) | 1 hr | 3 hr | 6 hr |
| 6 hour | |||||||||||||||||
| Temperature (ºC) | Pressure | Precipitation (cm) | |||||||||||||||